sensor_id;sensor_type;location;lat;lon;timestamp;temperature;humidity
8979;DHT22;4524;51.364;5.448;2024-01-11T00:01:45;-3.10;92.50
8979;DHT22;4524;51.364;5.448;2024-01-11T00:04:13;-3.10;92.60
8979;DHT22;4524;51.364;5.448;2024-01-11T00:06:43;-3.10;93.60
8979;DHT22;4524;51.364;5.448;2024-01-11T00:09:12;-3.10;93.00
8979;DHT22;4524;51.364;5.448;2024-01-11T00:11:40;-3.10;93.00
8979;DHT22;4524;51.364;5.448;2024-01-11T00:14:08;-3.00;92.90
8979;DHT22;4524;51.364;5.448;2024-01-11T00:16:36;-3.00;93.40
8979;DHT22;4524;51.364;5.448;2024-01-11T00:19:04;-3.00;93.20
8979;DHT22;4524;51.364;5.448;2024-01-11T00:21:32;-3.10;93.60
8979;DHT22;4524;51.364;5.448;2024-01-11T00:24:01;-3.10;93.60
8979;DHT22;4524;51.364;5.448;2024-01-11T00:26:29;-3.10;94.10
8979;DHT22;4524;51.364;5.448;2024-01-11T00:28:57;-3.10;93.80
8979;DHT22;4524;51.364;5.448;2024-01-11T00:31:25;-3.10;94.20
8979;DHT22;4524;51.364;5.448;2024-01-11T00:33:54;-3.10;94.40
8979;DHT22;4524;51.364;5.448;2024-01-11T00:36:22;-3.10;94.80
8979;DHT22;4524;51.364;5.448;2024-01-11T00:38:50;-3.10;94.90
8979;DHT22;4524;51.364;5.448;2024-01-11T00:41:19;-3.00;94.30
8979;DHT22;4524;51.364;5.448;2024-01-11T00:43:47;-3.00;94.00
8979;DHT22;4524;51.364;5.448;2024-01-11T00:46:15;-3.10;94.70
8979;DHT22;4524;51.364;5.448;2024-01-11T00:48:43;-3.10;95.30
8979;DHT22;4524;51.364;5.448;2024-01-11T00:51:11;-3.20;95.80
8979;DHT22;4524;51.364;5.448;2024-01-11T00:53:39;-3.20;96.10
8979;DHT22;4524;51.364;5.448;2024-01-11T00:56:15;-3.20;96.00
8979;DHT22;4524;51.364;5.448;2024-01-11T00:58:44;-3.20;96.30
8979;DHT22;4524;51.364;5.448;2024-01-11T01:01:13;-3.20;96.80
8979;DHT22;4524;51.364;5.448;2024-01-11T01:03:41;-3.20;96.20
8979;DHT22;4524;51.364;5.448;2024-01-11T01:06:09;-3.20;96.70
8979;DHT22;4524;51.364;5.448;2024-01-11T01:08:37;-3.20;96.80
8979;DHT22;4524;51.364;5.448;2024-01-11T01:11:05;-3.30;97.70
8979;DHT22;4524;51.364;5.448;2024-01-11T01:13:34;-3.20;97.90
8979;DHT22;4524;51.364;5.448;2024-01-11T01:16:03;-3.20;98.00
8979;DHT22;4524;51.364;5.448;2024-01-11T01:18:31;-3.20;97.60
8979;DHT22;4524;51.364;5.448;2024-01-11T01:21:00;-3.20;98.00
8979;DHT22;4524;51.364;5.448;2024-01-11T01:23:27;-3.20;97.90
8979;DHT22;4524;51.364;5.448;2024-01-11T01:25:56;-3.10;98.30
8979;DHT22;4524;51.364;5.448;2024-01-11T01:28:23;-3.10;98.40
8979;DHT22;4524;51.364;5.448;2024-01-11T01:30:51;-3.10;98.80
8979;DHT22;4524;51.364;5.448;2024-01-11T01:33:21;-3.20;98.30
8979;DHT22;4524;51.364;5.448;2024-01-11T01:35:49;-3.30;99.30
8979;DHT22;4524;51.364;5.448;2024-01-11T01:38:17;-3.20;98.70
8979;DHT22;4524;51.364;5.448;2024-01-11T01:40:45;-3.20;98.00
8979;DHT22;4524;51.364;5.448;2024-01-11T01:43:13;-3.30;99.90
8979;DHT22;4524;51.364;5.448;2024-01-11T01:45:41;-3.30;98.50
8979;DHT22;4524;51.364;5.448;2024-01-11T01:48:09;-3.30;99.30
8979;DHT22;4524;51.364;5.448;2024-01-11T01:50:39;-3.20;99.90
8979;DHT22;4524;51.364;5.448;2024-01-11T01:53:09;-3.30;99.30
8979;DHT22;4524;51.364;5.448;2024-01-11T01:55:37;-3.20;99.90
8979;DHT22;4524;51.364;5.448;2024-01-11T01:58:05;-3.30;99.90
8979;DHT22;4524;51.364;5.448;2024-01-11T02:00:33;-3.30;99.90
8979;DHT22;4524;51.364;5.448;2024-01-11T02:03:01;-3.30;99.90
8979;DHT22;4524;51.364;5.448;2024-01-11T02:05:29;-3.30;99.90
8979;DHT22;4524;51.364;5.448;2024-01-11T02:08:01;-3.30;99.90
8979;DHT22;4524;51.364;5.448;2024-01-11T02:10:33;-3.30;99.90
8979;DHT22;4524;51.364;5.448;2024-01-11T02:13:02;-3.20;99.90
8979;DHT22;4524;51.364;5.448;2024-01-11T02:15:31;-3.20;99.90
8979;DHT22;4524;51.364;5.448;2024-01-11T02:17:59;-3.20;99.90
8979;DHT22;4524;51.364;5.448;2024-01-11T02:20:27;-3.30;99.90
8979;DHT22;4524;51.364;5.448;2024-01-11T02:22:56;-3.30;99.90
8979;DHT22;4524;51.364;5.448;2024-01-11T02:25:27;-3.30;99.90
8979;DHT22;4524;51.364;5.448;2024-01-11T02:27:55;-3.20;99.90
8979;DHT22;4524;51.364;5.448;2024-01-11T02:30:23;-3.30;99.90
8979;DHT22;4524;51.364;5.448;2024-01-11T02:32:51;-3.30;99.90
8979;DHT22;4524;51.364;5.448;2024-01-11T02:35:20;-3.30;99.90
8979;DHT22;4524;51.364;5.448;2024-01-11T02:37:48;-3.30;99.90
8979;DHT22;4524;51.364;5.448;2024-01-11T02:40:19;-3.40;99.90
8979;DHT22;4524;51.364;5.448;2024-01-11T02:42:48;-3.40;99.90
8979;DHT22;4524;51.364;5.448;2024-01-11T02:45:16;-3.40;99.90
8979;DHT22;4524;51.364;5.448;2024-01-11T02:47:45;-3.40;99.90
8979;DHT22;4524;51.364;5.448;2024-01-11T02:50:13;-3.40;99.90
8979;DHT22;4524;51.364;5.448;2024-01-11T02:52:41;-3.50;99.90
8979;DHT22;4524;51.364;5.448;2024-01-11T02:55:09;-3.50;99.90
8979;DHT22;4524;51.364;5.448;2024-01-11T02:57:37;-3.50;99.90
8979;DHT22;4524;51.364;5.448;2024-01-11T03:00:07;-3.50;99.90
8979;DHT22;4524;51.364;5.448;2024-01-11T03:02:37;-3.50;99.90
8979;DHT22;4524;51.364;5.448;2024-01-11T03:05:06;-3.50;99.90
8979;DHT22;4524;51.364;5.448;2024-01-11T03:07:34;-3.50;99.90
8979;DHT22;4524;51.364;5.448;2024-01-11T03:10:02;-3.50;99.90
8979;DHT22;4524;51.364;5.448;2024-01-11T03:12:30;-3.50;99.90
8979;DHT22;4524;51.364;5.448;2024-01-11T03:14:58;-3.50;99.90
8979;DHT22;4524;51.364;5.448;2024-01-11T03:17:28;-3.50;99.90
8979;DHT22;4524;51.364;5.448;2024-01-11T03:19:56;-3.60;99.90
8979;DHT22;4524;51.364;5.448;2024-01-11T03:22:24;-3.50;99.90
8979;DHT22;4524;51.364;5.448;2024-01-11T03:24:52;-3.60;99.90
8979;DHT22;4524;51.364;5.448;2024-01-11T03:27:20;-3.50;99.90
8979;DHT22;4524;51.364;5.448;2024-01-11T03:29:48;-3.60;99.90
8979;DHT22;4524;51.364;5.448;2024-01-11T03:32:17;-3.70;99.90
8979;DHT22;4524;51.364;5.448;2024-01-11T03:34:46;-3.60;99.90
8979;DHT22;4524;51.364;5.448;2024-01-11T03:37:14;-3.70;99.90
8979;DHT22;4524;51.364;5.448;2024-01-11T03:39:43;-3.80;99.90
8979;DHT22;4524;51.364;5.448;2024-01-11T03:42:11;-3.80;99.90
8979;DHT22;4524;51.364;5.448;2024-01-11T03:44:39;-3.70;99.90
8979;DHT22;4524;51.364;5.448;2024-01-11T03:47:07;-3.70;99.90
8979;DHT22;4524;51.364;5.448;2024-01-11T03:49:35;-3.70;99.90
8979;DHT22;4524;51.364;5.448;2024-01-11T03:52:05;-3.80;99.90
8979;DHT22;4524;51.364;5.448;2024-01-11T03:54:34;-3.80;99.90
8979;DHT22;4524;51.364;5.448;2024-01-11T03:57:02;-3.80;99.90
8979;DHT22;4524;51.364;5.448;2024-01-11T03:59:30;-3.80;99.90
8979;DHT22;4524;51.364;5.448;2024-01-11T04:01:59;-3.80;99.90
8979;DHT22;4524;51.364;5.448;2024-01-11T04:04:27;-3.80;99.90
8979;DHT22;4524;51.364;5.448;2024-01-11T04:06:55;-3.80;99.90
8979;DHT22;4524;51.364;5.448;2024-01-11T04:09:24;-3.80;99.90
8979;DHT22;4524;51.364;5.448;2024-01-11T04:11:52;-3.80;99.90
8979;DHT22;4524;51.364;5.448;2024-01-11T04:14:20;-3.90;99.90
8979;DHT22;4524;51.364;5.448;2024-01-11T04:16:48;-3.80;99.90
8979;DHT22;4524;51.364;5.448;2024-01-11T04:19:16;-3.80;99.90
8979;DHT22;4524;51.364;5.448;2024-01-11T04:21:49;-3.70;99.90
8979;DHT22;4524;51.364;5.448;2024-01-11T04:24:17;-3.80;99.90
8979;DHT22;4524;51.364;5.448;2024-01-11T04:26:46;-3.80;99.90
8979;DHT22;4524;51.364;5.448;2024-01-11T04:29:14;-3.80;99.90
8979;DHT22;4524;51.364;5.448;2024-01-11T04:31:42;-3.70;99.90
8979;DHT22;4524;51.364;5.448;2024-01-11T04:34:10;-3.80;99.90
8979;DHT22;4524;51.364;5.448;2024-01-11T04:36:38;-3.90;99.90
8979;DHT22;4524;51.364;5.448;2024-01-11T04:39:06;-3.90;99.90
8979;DHT22;4524;51.364;5.448;2024-01-11T04:41:35;-3.90;99.90
8979;DHT22;4524;51.364;5.448;2024-01-11T04:44:05;-4.00;99.90
8979;DHT22;4524;51.364;5.448;2024-01-11T04:46:33;-4.00;99.90
8979;DHT22;4524;51.364;5.448;2024-01-11T04:49:01;-4.00;99.90
8979;DHT22;4524;51.364;5.448;2024-01-11T04:51:29;-4.00;99.90
8979;DHT22;4524;51.364;5.448;2024-01-11T04:53:57;-4.00;99.90
8979;DHT22;4524;51.364;5.448;2024-01-11T04:56:25;-4.10;99.90
8979;DHT22;4524;51.364;5.448;2024-01-11T04:58:53;-4.10;99.90
8979;DHT22;4524;51.364;5.448;2024-01-11T05:01:22;-4.10;99.90
8979;DHT22;4524;51.364;5.448;2024-01-11T05:03:50;-4.20;99.90
8979;DHT22;4524;51.364;5.448;2024-01-11T05:06:19;-4.20;99.90
8979;DHT22;4524;51.364;5.448;2024-01-11T05:08:50;-4.20;99.90
8979;DHT22;4524;51.364;5.448;2024-01-11T05:11:19;-4.20;99.90
8979;DHT22;4524;51.364;5.448;2024-01-11T05:13:48;-4.20;99.90
8979;DHT22;4524;51.364;5.448;2024-01-11T05:16:22;-4.20;99.90
8979;DHT22;4524;51.364;5.448;2024-01-11T05:18:50;-4.20;99.90
8979;DHT22;4524;51.364;5.448;2024-01-11T05:21:18;-4.20;99.90
8979;DHT22;4524;51.364;5.448;2024-01-11T05:23:47;-4.30;99.90
8979;DHT22;4524;51.364;5.448;2024-01-11T05:26:16;-4.30;99.90
8979;DHT22;4524;51.364;5.448;2024-01-11T05:28:45;-4.20;99.90
8979;DHT22;4524;51.364;5.448;2024-01-11T05:31:14;-4.20;99.90
8979;DHT22;4524;51.364;5.448;2024-01-11T05:33:45;-4.30;99.90
8979;DHT22;4524;51.364;5.448;2024-01-11T05:36:14;-4.20;99.90
8979;DHT22;4524;51.364;5.448;2024-01-11T05:38:42;-4.30;99.90
8979;DHT22;4524;51.364;5.448;2024-01-11T05:41:10;-4.30;99.90
8979;DHT22;4524;51.364;5.448;2024-01-11T05:43:40;-4.30;99.90
8979;DHT22;4524;51.364;5.448;2024-01-11T05:46:09;-4.30;99.90
8979;DHT22;4524;51.364;5.448;2024-01-11T05:48:37;-4.20;99.90
8979;DHT22;4524;51.364;5.448;2024-01-11T05:51:08;-4.30;99.90
8979;DHT22;4524;51.364;5.448;2024-01-11T05:53:36;-4.20;99.90
8979;DHT22;4524;51.364;5.448;2024-01-11T05:56:07;-4.30;99.90
8979;DHT22;4524;51.364;5.448;2024-01-11T05:58:36;-4.40;99.90
8979;DHT22;4524;51.364;5.448;2024-01-11T06:01:04;-4.40;99.90
8979;DHT22;4524;51.364;5.448;2024-01-11T06:03:33;-4.30;99.90
8979;DHT22;4524;51.364;5.448;2024-01-11T06:06:03;-4.30;99.90
8979;DHT22;4524;51.364;5.448;2024-01-11T06:08:32;-4.20;99.90
8979;DHT22;4524;51.364;5.448;2024-01-11T06:11:00;-4.20;99.90
8979;DHT22;4524;51.364;5.448;2024-01-11T06:13:28;-4.20;99.90
8979;DHT22;4524;51.364;5.448;2024-01-11T06:15:56;-4.30;99.90
8979;DHT22;4524;51.364;5.448;2024-01-11T06:18:24;-4.30;99.90
8979;DHT22;4524;51.364;5.448;2024-01-11T06:20:53;-4.40;99.90
8979;DHT22;4524;51.364;5.448;2024-01-11T06:23:21;-4.40;99.90
8979;DHT22;4524;51.364;5.448;2024-01-11T06:25:50;-4.40;99.90
8979;DHT22;4524;51.364;5.448;2024-01-11T06:28:18;-4.30;99.90
8979;DHT22;4524;51.364;5.448;2024-01-11T06:30:46;-4.40;99.90
8979;DHT22;4524;51.364;5.448;2024-01-11T06:33:14;-4.50;99.90
8979;DHT22;4524;51.364;5.448;2024-01-11T06:35:42;-4.50;99.90
8979;DHT22;4524;51.364;5.448;2024-01-11T06:38:10;-4.50;99.90
8979;DHT22;4524;51.364;5.448;2024-01-11T06:40:38;-4.40;99.90
8979;DHT22;4524;51.364;5.448;2024-01-11T06:43:08;-4.40;99.90
8979;DHT22;4524;51.364;5.448;2024-01-11T06:45:36;-4.50;99.90
8979;DHT22;4524;51.364;5.448;2024-01-11T06:48:05;-4.50;99.90
8979;DHT22;4524;51.364;5.448;2024-01-11T06:50:34;-4.50;99.90
8979;DHT22;4524;51.364;5.448;2024-01-11T06:53:02;-4.50;99.90
8979;DHT22;4524;51.364;5.448;2024-01-11T06:55:31;-4.60;99.90
8979;DHT22;4524;51.364;5.448;2024-01-11T06:57:59;-4.60;99.90
8979;DHT22;4524;51.364;5.448;2024-01-11T07:00:30;-4.70;99.90
8979;DHT22;4524;51.364;5.448;2024-01-11T07:02:58;-4.70;99.90
8979;DHT22;4524;51.364;5.448;2024-01-11T07:05:26;-4.60;99.90
8979;DHT22;4524;51.364;5.448;2024-01-11T07:07:54;-4.70;99.90
8979;DHT22;4524;51.364;5.448;2024-01-11T07:10:22;-4.80;99.90
8979;DHT22;4524;51.364;5.448;2024-01-11T07:12:50;-4.70;99.90
8979;DHT22;4524;51.364;5.448;2024-01-11T07:15:18;-4.80;99.90
8979;DHT22;4524;51.364;5.448;2024-01-11T07:17:47;-4.90;99.90
8979;DHT22;4524;51.364;5.448;2024-01-11T07:20:16;-4.90;99.90
8979;DHT22;4524;51.364;5.448;2024-01-11T07:22:45;-4.90;99.90
8979;DHT22;4524;51.364;5.448;2024-01-11T07:25:13;-4.80;99.90
8979;DHT22;4524;51.364;5.448;2024-01-11T07:27:42;-4.70;99.90
8979;DHT22;4524;51.364;5.448;2024-01-11T07:30:11;-4.60;99.90
8979;DHT22;4524;51.364;5.448;2024-01-11T07:32:39;-4.70;99.90
8979;DHT22;4524;51.364;5.448;2024-01-11T07:35:09;-4.70;99.90
8979;DHT22;4524;51.364;5.448;2024-01-11T07:37:44;-4.80;99.90
8979;DHT22;4524;51.364;5.448;2024-01-11T07:40:12;-4.60;99.90
8979;DHT22;4524;51.364;5.448;2024-01-11T07:42:41;-4.60;99.90
8979;DHT22;4524;51.364;5.448;2024-01-11T07:45:10;-4.60;99.90
8979;DHT22;4524;51.364;5.448;2024-01-11T07:47:38;-4.60;99.90
8979;DHT22;4524;51.364;5.448;2024-01-11T07:50:08;-4.60;99.90
8979;DHT22;4524;51.364;5.448;2024-01-11T07:52:37;-4.70;99.90
8979;DHT22;4524;51.364;5.448;2024-01-11T07:55:09;-4.60;99.90
8979;DHT22;4524;51.364;5.448;2024-01-11T07:57:39;-4.60;99.90
8979;DHT22;4524;51.364;5.448;2024-01-11T08:00:08;-4.60;99.90
8979;DHT22;4524;51.364;5.448;2024-01-11T08:02:39;-4.60;99.90
8979;DHT22;4524;51.364;5.448;2024-01-11T08:05:09;-4.60;99.90
8979;DHT22;4524;51.364;5.448;2024-01-11T08:07:37;-4.60;99.90
8979;DHT22;4524;51.364;5.448;2024-01-11T08:10:07;-4.50;99.90
8979;DHT22;4524;51.364;5.448;2024-01-11T08:12:36;-4.50;99.90
8979;DHT22;4524;51.364;5.448;2024-01-11T08:15:05;-4.60;99.90
8979;DHT22;4524;51.364;5.448;2024-01-11T08:17:33;-4.50;99.90
8979;DHT22;4524;51.364;5.448;2024-01-11T08:20:04;-4.40;99.90
8979;DHT22;4524;51.364;5.448;2024-01-11T08:22:36;-4.30;99.90
8979;DHT22;4524;51.364;5.448;2024-01-11T08:25:05;-4.20;99.90
8979;DHT22;4524;51.364;5.448;2024-01-11T08:27:33;-4.10;99.90
8979;DHT22;4524;51.364;5.448;2024-01-11T08:30:02;-4.00;99.90
8979;DHT22;4524;51.364;5.448;2024-01-11T08:32:31;-4.00;99.90
8979;DHT22;4524;51.364;5.448;2024-01-11T08:35:06;-3.90;99.90
8979;DHT22;4524;51.364;5.448;2024-01-11T08:37:38;-3.90;99.90
8979;DHT22;4524;51.364;5.448;2024-01-11T08:40:07;-3.70;99.90
8979;DHT22;4524;51.364;5.448;2024-01-11T08:42:36;-3.60;99.90
8979;DHT22;4524;51.364;5.448;2024-01-11T08:45:05;-3.60;99.90
8979;DHT22;4524;51.364;5.448;2024-01-11T08:47:33;-3.60;99.90
8979;DHT22;4524;51.364;5.448;2024-01-11T08:50:02;-3.60;99.90
8979;DHT22;4524;51.364;5.448;2024-01-11T08:52:33;-3.60;99.90
8979;DHT22;4524;51.364;5.448;2024-01-11T08:55:02;-3.40;99.90
8979;DHT22;4524;51.364;5.448;2024-01-11T08:57:31;-3.40;99.90
8979;DHT22;4524;51.364;5.448;2024-01-11T08:59:59;-3.30;99.90
8979;DHT22;4524;51.364;5.448;2024-01-11T09:02:27;-3.20;99.90
8979;DHT22;4524;51.364;5.448;2024-01-11T09:04:55;-3.00;99.90
8979;DHT22;4524;51.364;5.448;2024-01-11T09:07:23;-2.80;99.90
8979;DHT22;4524;51.364;5.448;2024-01-11T09:09:51;-2.70;99.90
8979;DHT22;4524;51.364;5.448;2024-01-11T09:12:25;-2.70;99.90
8979;DHT22;4524;51.364;5.448;2024-01-11T09:14:52;-2.60;99.90
8979;DHT22;4524;51.364;5.448;2024-01-11T09:17:21;-2.60;99.90
8979;DHT22;4524;51.364;5.448;2024-01-11T09:19:50;-2.70;99.90
8979;DHT22;4524;51.364;5.448;2024-01-11T09:22:18;-2.70;99.90
8979;DHT22;4524;51.364;5.448;2024-01-11T09:24:46;-2.60;99.90
8979;DHT22;4524;51.364;5.448;2024-01-11T09:27:14;-2.50;99.90
8979;DHT22;4524;51.364;5.448;2024-01-11T09:29:44;-2.50;99.90
8979;DHT22;4524;51.364;5.448;2024-01-11T09:32:12;-2.40;99.90
8979;DHT22;4524;51.364;5.448;2024-01-11T09:34:41;-2.50;99.90
8979;DHT22;4524;51.364;5.448;2024-01-11T09:37:12;-2.40;99.90
8979;DHT22;4524;51.364;5.448;2024-01-11T09:39:41;-2.30;99.90
8979;DHT22;4524;51.364;5.448;2024-01-11T09:42:09;-2.20;99.30
8979;DHT22;4524;51.364;5.448;2024-01-11T09:44:38;-2.10;99.90
8979;DHT22;4524;51.364;5.448;2024-01-11T09:47:09;-2.10;99.90
8979;DHT22;4524;51.364;5.448;2024-01-11T09:49:43;-2.00;98.80
8979;DHT22;4524;51.364;5.448;2024-01-11T09:52:12;-1.90;98.10
8979;DHT22;4524;51.364;5.448;2024-01-11T09:54:42;-2.00;95.50
8979;DHT22;4524;51.364;5.448;2024-01-11T09:57:10;-1.90;96.60
8979;DHT22;4524;51.364;5.448;2024-01-11T09:59:39;-1.90;96.70
8979;DHT22;4524;51.364;5.448;2024-01-11T10:02:10;-1.90;97.80
8979;DHT22;4524;51.364;5.448;2024-01-11T10:04:42;-1.80;97.30
8979;DHT22;4524;51.364;5.448;2024-01-11T10:07:09;-1.70;96.50
8979;DHT22;4524;51.364;5.448;2024-01-11T10:09:38;-1.70;94.80
8979;DHT22;4524;51.364;5.448;2024-01-11T10:12:07;-1.60;97.50
8979;DHT22;4524;51.364;5.448;2024-01-11T10:14:35;-1.50;95.30
8979;DHT22;4524;51.364;5.448;2024-01-11T10:17:04;-1.60;94.40
8979;DHT22;4524;51.364;5.448;2024-01-11T10:19:33;-1.50;96.40
8979;DHT22;4524;51.364;5.448;2024-01-11T10:22:03;-1.40;95.30
8979;DHT22;4524;51.364;5.448;2024-01-11T10:24:31;-1.50;93.70
8979;DHT22;4524;51.364;5.448;2024-01-11T10:26:59;-1.40;94.20
8979;DHT22;4524;51.364;5.448;2024-01-11T10:29:31;-1.30;92.70
8979;DHT22;4524;51.364;5.448;2024-01-11T10:31:59;-1.30;92.30
8979;DHT22;4524;51.364;5.448;2024-01-11T10:34:27;-1.20;93.90
8979;DHT22;4524;51.364;5.448;2024-01-11T10:36:57;-1.20;93.10
8979;DHT22;4524;51.364;5.448;2024-01-11T10:39:25;-1.20;91.70
8979;DHT22;4524;51.364;5.448;2024-01-11T10:42:01;-1.10;92.50
8979;DHT22;4524;51.364;5.448;2024-01-11T10:44:34;-1.00;94.50
8979;DHT22;4524;51.364;5.448;2024-01-11T10:47:04;-0.90;95.10
8979;DHT22;4524;51.364;5.448;2024-01-11T10:49:39;-0.80;90.40
8979;DHT22;4524;51.364;5.448;2024-01-11T10:52:12;-0.90;88.00
8979;DHT22;4524;51.364;5.448;2024-01-11T10:54:41;-0.80;87.90
8979;DHT22;4524;51.364;5.448;2024-01-11T10:57:10;-0.80;88.60
8979;DHT22;4524;51.364;5.448;2024-01-11T10:59:40;-0.80;87.70
8979;DHT22;4524;51.364;5.448;2024-01-11T11:02:10;-0.80;87.00
8979;DHT22;4524;51.364;5.448;2024-01-11T11:04:42;-0.70;88.30
8979;DHT22;4524;51.364;5.448;2024-01-11T11:07:12;-0.70;88.80
8979;DHT22;4524;51.364;5.448;2024-01-11T11:09:44;-0.70;88.40
8979;DHT22;4524;51.364;5.448;2024-01-11T11:12:12;-0.60;87.10
8979;DHT22;4524;51.364;5.448;2024-01-11T11:14:41;-0.50;87.60
8979;DHT22;4524;51.364;5.448;2024-01-11T11:17:11;-0.60;86.80
8979;DHT22;4524;51.364;5.448;2024-01-11T11:19:39;-0.60;87.10
8979;DHT22;4524;51.364;5.448;2024-01-11T11:22:07;-0.60;86.50
8979;DHT22;4524;51.364;5.448;2024-01-11T11:24:36;-0.50;87.50
8979;DHT22;4524;51.364;5.448;2024-01-11T11:27:05;-0.50;86.00
8979;DHT22;4524;51.364;5.448;2024-01-11T11:29:34;-0.50;84.80
8979;DHT22;4524;51.364;5.448;2024-01-11T11:32:02;-0.50;84.70
8979;DHT22;4524;51.364;5.448;2024-01-11T11:34:41;-0.40;84.40
8979;DHT22;4524;51.364;5.448;2024-01-11T11:37:11;-0.40;84.30
8979;DHT22;4524;51.364;5.448;2024-01-11T11:39:41;-0.40;83.50
8979;DHT22;4524;51.364;5.448;2024-01-11T11:42:10;-0.30;83.00
8979;DHT22;4524;51.364;5.448;2024-01-11T11:44:48;-0.30;82.40
8979;DHT22;4524;51.364;5.448;2024-01-11T11:47:20;-0.20;83.40
8979;DHT22;4524;51.364;5.448;2024-01-11T11:50:06;-0.20;82.40
8979;DHT22;4524;51.364;5.448;2024-01-11T11:52:35;-0.20;82.90
8979;DHT22;4524;51.364;5.448;2024-01-11T11:55:08;-0.20;82.20
8979;DHT22;4524;51.364;5.448;2024-01-11T11:57:36;-0.10;81.30
8979;DHT22;4524;51.364;5.448;2024-01-11T12:00:05;-0.10;81.10
8979;DHT22;4524;51.364;5.448;2024-01-11T12:02:39;-0.10;80.00
8979;DHT22;4524;51.364;5.448;2024-01-11T12:05:08;0.00;80.70
8979;DHT22;4524;51.364;5.448;2024-01-11T12:07:36;0.10;79.40
8979;DHT22;4524;51.364;5.448;2024-01-11T12:10:06;0.10;79.60
8979;DHT22;4524;51.364;5.448;2024-01-11T12:12:35;0.10;80.00
8979;DHT22;4524;51.364;5.448;2024-01-11T12:15:04;0.20;81.10
8979;DHT22;4524;51.364;5.448;2024-01-11T12:17:32;0.20;80.00
8979;DHT22;4524;51.364;5.448;2024-01-11T12:20:01;0.20;78.60
8979;DHT22;4524;51.364;5.448;2024-01-11T12:22:30;0.30;79.30
8979;DHT22;4524;51.364;5.448;2024-01-11T12:24:58;0.30;79.70
8979;DHT22;4524;51.364;5.448;2024-01-11T12:27:28;0.30;78.80
8979;DHT22;4524;51.364;5.448;2024-01-11T12:29:55;0.40;78.50
8979;DHT22;4524;51.364;5.448;2024-01-11T12:32:25;0.40;78.40
8979;DHT22;4524;51.364;5.448;2024-01-11T12:34:54;0.40;78.90
8979;DHT22;4524;51.364;5.448;2024-01-11T12:37:22;0.40;78.80
8979;DHT22;4524;51.364;5.448;2024-01-11T12:39:53;0.50;77.90
8979;DHT22;4524;51.364;5.448;2024-01-11T12:42:24;0.60;77.20
8979;DHT22;4524;51.364;5.448;2024-01-11T12:44:53;0.60;77.20
8979;DHT22;4524;51.364;5.448;2024-01-11T12:47:25;0.70;77.70
8979;DHT22;4524;51.364;5.448;2024-01-11T12:49:53;0.70;77.40
8979;DHT22;4524;51.364;5.448;2024-01-11T12:52:21;0.80;78.10
8979;DHT22;4524;51.364;5.448;2024-01-11T12:54:52;0.80;77.50
8979;DHT22;4524;51.364;5.448;2024-01-11T12:57:20;0.80;76.50
8979;DHT22;4524;51.364;5.448;2024-01-11T12:59:48;0.80;75.60
8979;DHT22;4524;51.364;5.448;2024-01-11T13:02:18;0.90;74.90
8979;DHT22;4524;51.364;5.448;2024-01-11T13:04:46;0.90;75.20
8979;DHT22;4524;51.364;5.448;2024-01-11T13:07:14;0.90;75.70
8979;DHT22;4524;51.364;5.448;2024-01-11T13:09:43;1.00;74.70
8979;DHT22;4524;51.364;5.448;2024-01-11T13:12:11;1.00;74.60
8979;DHT22;4524;51.364;5.448;2024-01-11T13:14:39;1.00;75.60
8979;DHT22;4524;51.364;5.448;2024-01-11T13:17:07;1.00;73.90
8979;DHT22;4524;51.364;5.448;2024-01-11T13:19:37;1.00;73.90
8979;DHT22;4524;51.364;5.448;2024-01-11T13:22:06;1.00;73.70
8979;DHT22;4524;51.364;5.448;2024-01-11T13:24:34;1.00;74.30
8979;DHT22;4524;51.364;5.448;2024-01-11T13:27:02;1.10;72.30
8979;DHT22;4524;51.364;5.448;2024-01-11T13:29:30;1.10;72.10
8979;DHT22;4524;51.364;5.448;2024-01-11T13:31:58;1.10;73.00
8979;DHT22;4524;51.364;5.448;2024-01-11T13:34:30;1.10;73.90
8979;DHT22;4524;51.364;5.448;2024-01-11T13:36:59;1.10;73.00
8979;DHT22;4524;51.364;5.448;2024-01-11T13:39:27;1.10;73.20
8979;DHT22;4524;51.364;5.448;2024-01-11T13:41:55;1.10;74.70
8979;DHT22;4524;51.364;5.448;2024-01-11T13:44:23;1.00;74.10
8979;DHT22;4524;51.364;5.448;2024-01-11T13:46:51;1.00;73.90
8979;DHT22;4524;51.364;5.448;2024-01-11T13:49:19;1.00;74.60
8979;DHT22;4524;51.364;5.448;2024-01-11T13:51:49;1.00;75.50
8979;DHT22;4524;51.364;5.448;2024-01-11T13:54:28;1.00;75.30
8979;DHT22;4524;51.364;5.448;2024-01-11T13:56:56;1.00;74.40
8979;DHT22;4524;51.364;5.448;2024-01-11T13:59:24;1.00;74.80
8979;DHT22;4524;51.364;5.448;2024-01-11T14:01:52;0.90;73.20
8979;DHT22;4524;51.364;5.448;2024-01-11T14:04:20;1.00;74.00
8979;DHT22;4524;51.364;5.448;2024-01-11T14:06:50;0.90;74.20
8979;DHT22;4524;51.364;5.448;2024-01-11T14:09:19;0.90;76.00
8979;DHT22;4524;51.364;5.448;2024-01-11T14:11:49;0.90;77.20
8979;DHT22;4524;51.364;5.448;2024-01-11T14:14:17;0.90;78.40
8979;DHT22;4524;51.364;5.448;2024-01-11T14:16:47;0.90;78.70
8979;DHT22;4524;51.364;5.448;2024-01-11T14:19:15;0.80;79.60
8979;DHT22;4524;51.364;5.448;2024-01-11T14:21:43;0.80;80.20
8979;DHT22;4524;51.364;5.448;2024-01-11T14:24:11;0.80;81.10
8979;DHT22;4524;51.364;5.448;2024-01-11T14:26:40;0.80;84.20
8979;DHT22;4524;51.364;5.448;2024-01-11T14:29:11;0.80;84.90
8979;DHT22;4524;51.364;5.448;2024-01-11T14:31:39;0.80;86.60
8979;DHT22;4524;51.364;5.448;2024-01-11T14:34:07;0.70;92.10
8979;DHT22;4524;51.364;5.448;2024-01-11T14:36:35;0.70;94.70
8979;DHT22;4524;51.364;5.448;2024-01-11T14:39:03;0.70;99.90
8979;DHT22;4524;51.364;5.448;2024-01-11T14:41:32;0.70;99.90
8979;DHT22;4524;51.364;5.448;2024-01-11T14:44:00;0.70;99.90
8979;DHT22;4524;51.364;5.448;2024-01-11T14:46:30;0.70;99.90
8979;DHT22;4524;51.364;5.448;2024-01-11T14:48:58;0.70;99.90
8979;DHT22;4524;51.364;5.448;2024-01-11T14:51:27;0.70;99.90
8979;DHT22;4524;51.364;5.448;2024-01-11T14:53:57;0.80;99.90
8979;DHT22;4524;51.364;5.448;2024-01-11T14:56:25;0.90;99.90
8979;DHT22;4524;51.364;5.448;2024-01-11T14:58:54;1.10;99.90
8979;DHT22;4524;51.364;5.448;2024-01-11T15:01:22;1.10;99.90
8979;DHT22;4524;51.364;5.448;2024-01-11T15:03:51;1.10;99.90
8979;DHT22;4524;51.364;5.448;2024-01-11T15:06:19;1.10;99.90
8979;DHT22;4524;51.364;5.448;2024-01-11T15:08:47;1.10;99.90
8979;DHT22;4524;51.364;5.448;2024-01-11T15:11:15;1.20;99.90
8979;DHT22;4524;51.364;5.448;2024-01-11T15:13:43;1.20;99.90
8979;DHT22;4524;51.364;5.448;2024-01-11T15:16:11;1.20;99.90
8979;DHT22;4524;51.364;5.448;2024-01-11T15:18:39;1.30;99.90
8979;DHT22;4524;51.364;5.448;2024-01-11T15:21:12;1.30;99.90
8979;DHT22;4524;51.364;5.448;2024-01-11T15:23:40;1.40;99.90
8979;DHT22;4524;51.364;5.448;2024-01-11T15:26:08;1.40;99.90
8979;DHT22;4524;51.364;5.448;2024-01-11T15:28:35;1.40;99.90
8979;DHT22;4524;51.364;5.448;2024-01-11T15:31:04;1.40;99.90
8979;DHT22;4524;51.364;5.448;2024-01-11T15:33:32;1.40;99.90
8979;DHT22;4524;51.364;5.448;2024-01-11T15:36:01;1.50;99.90
8979;DHT22;4524;51.364;5.448;2024-01-11T15:38:30;1.50;99.90
8979;DHT22;4524;51.364;5.448;2024-01-11T15:40:58;1.60;99.90
8979;DHT22;4524;51.364;5.448;2024-01-11T15:43:26;1.60;99.90
8979;DHT22;4524;51.364;5.448;2024-01-11T15:45:54;1.60;99.90
8979;DHT22;4524;51.364;5.448;2024-01-11T15:48:22;1.60;99.90
8979;DHT22;4524;51.364;5.448;2024-01-11T15:50:51;1.60;99.90
8979;DHT22;4524;51.364;5.448;2024-01-11T15:53:21;1.70;99.90
8979;DHT22;4524;51.364;5.448;2024-01-11T15:55:51;1.70;99.90
8979;DHT22;4524;51.364;5.448;2024-01-11T15:58:19;1.70;99.90
8979;DHT22;4524;51.364;5.448;2024-01-11T16:00:47;1.80;99.90
8979;DHT22;4524;51.364;5.448;2024-01-11T16:03:15;1.80;99.90
8979;DHT22;4524;51.364;5.448;2024-01-11T16:05:43;1.90;99.90
8979;DHT22;4524;51.364;5.448;2024-01-11T16:08:11;1.90;99.90
8979;DHT22;4524;51.364;5.448;2024-01-11T16:10:39;2.00;99.90
8979;DHT22;4524;51.364;5.448;2024-01-11T16:13:09;2.00;99.90
8979;DHT22;4524;51.364;5.448;2024-01-11T16:15:37;2.00;99.90